sensor_id;sensor_type;location;lat;lon;timestamp;P1;durP1;ratioP1;P2;durP2;ratioP2
15669;SDS011;18524;45.190;5.732;2024-02-21T00:02:03;10.33;;;6.77;;
15669;SDS011;18524;45.190;5.732;2024-02-21T00:06:54;10.33;;;6.77;;
15669;SDS011;18524;45.190;5.732;2024-02-21T00:11:44;8.97;;;6.50;;
15669;SDS011;18524;45.190;5.732;2024-02-21T00:16:35;9.73;;;7.00;;
15669;SDS011;18524;45.190;5.732;2024-02-21T00:21:25;8.97;;;6.53;;
15669;SDS011;18524;45.190;5.732;2024-02-21T00:26:15;11.23;;;7.37;;
15669;SDS011;18524;45.190;5.732;2024-02-21T00:31:06;10.97;;;7.13;;
15669;SDS011;18524;45.190;5.732;2024-02-21T00:35:56;9.40;;;6.97;;
15669;SDS011;18524;45.190;5.732;2024-02-21T00:40:47;9.97;;;6.77;;
15669;SDS011;18524;45.190;5.732;2024-02-21T00:45:37;10.63;;;7.53;;
15669;SDS011;18524;45.190;5.732;2024-02-21T00:50:27;10.50;;;6.90;;
15669;SDS011;18524;45.190;5.732;2024-02-21T00:55:18;10.03;;;6.40;;
15669;SDS011;18524;45.190;5.732;2024-02-21T01:00:09;9.43;;;6.60;;
15669;SDS011;18524;45.190;5.732;2024-02-21T01:05:00;8.40;;;6.37;;
15669;SDS011;18524;45.190;5.732;2024-02-21T01:09:50;11.87;;;7.47;;
15669;SDS011;18524;45.190;5.732;2024-02-21T01:14:43;9.13;;;6.60;;
15669;SDS011;18524;45.190;5.732;2024-02-21T01:19:36;10.13;;;6.07;;
15669;SDS011;18524;45.190;5.732;2024-02-21T01:24:26;9.10;;;6.27;;
15669;SDS011;18524;45.190;5.732;2024-02-21T01:29:16;8.97;;;5.77;;
15669;SDS011;18524;45.190;5.732;2024-02-21T01:34:07;8.93;;;6.37;;
15669;SDS011;18524;45.190;5.732;2024-02-21T01:38:57;7.67;;;6.27;;
15669;SDS011;18524;45.190;5.732;2024-02-21T01:43:47;8.50;;;6.33;;
15669;SDS011;18524;45.190;5.732;2024-02-21T01:48:38;7.63;;;5.97;;
15669;SDS011;18524;45.190;5.732;2024-02-21T01:53:35;10.07;;;6.70;;
15669;SDS011;18524;45.190;5.732;2024-02-21T01:58:32;9.50;;;6.53;;
15669;SDS011;18524;45.190;5.732;2024-02-21T02:03:27;7.73;;;6.70;;
15669;SDS011;18524;45.190;5.732;2024-02-21T02:08:19;10.10;;;6.80;;
15669;SDS011;18524;45.190;5.732;2024-02-21T02:13:09;9.90;;;6.60;;
15669;SDS011;18524;45.190;5.732;2024-02-21T02:18:00;10.67;;;6.50;;
15669;SDS011;18524;45.190;5.732;2024-02-21T02:22:50;10.63;;;6.37;;
15669;SDS011;18524;45.190;5.732;2024-02-21T02:27:41;7.67;;;6.27;;
15669;SDS011;18524;45.190;5.732;2024-02-21T02:32:34;10.13;;;6.10;;
15669;SDS011;18524;45.190;5.732;2024-02-21T02:37:24;9.57;;;6.03;;
15669;SDS011;18524;45.190;5.732;2024-02-21T02:42:14;9.73;;;6.73;;
15669;SDS011;18524;45.190;5.732;2024-02-21T02:47:05;8.80;;;6.40;;
15669;SDS011;18524;45.190;5.732;2024-02-21T02:51:55;9.43;;;6.50;;
15669;SDS011;18524;45.190;5.732;2024-02-21T02:56:45;8.70;;;6.30;;
15669;SDS011;18524;45.190;5.732;2024-02-21T03:01:36;10.07;;;6.63;;
15669;SDS011;18524;45.190;5.732;2024-02-21T03:06:28;7.87;;;6.23;;
15669;SDS011;18524;45.190;5.732;2024-02-21T03:11:18;8.07;;;6.13;;
15669;SDS011;18524;45.190;5.732;2024-02-21T03:16:09;10.07;;;6.43;;
15669;SDS011;18524;45.190;5.732;2024-02-21T03:20:59;9.63;;;6.87;;
15669;SDS011;18524;45.190;5.732;2024-02-21T03:25:49;8.77;;;6.60;;
15669;SDS011;18524;45.190;5.732;2024-02-21T03:30:40;8.00;;;6.57;;
15669;SDS011;18524;45.190;5.732;2024-02-21T03:35:30;10.63;;;6.47;;
15669;SDS011;18524;45.190;5.732;2024-02-21T03:40:20;11.97;;;6.50;;
15669;SDS011;18524;45.190;5.732;2024-02-21T03:45:11;8.10;;;6.67;;
15669;SDS011;18524;45.190;5.732;2024-02-21T03:50:01;7.90;;;6.17;;
15669;SDS011;18524;45.190;5.732;2024-02-21T03:54:51;9.67;;;6.97;;
15669;SDS011;18524;45.190;5.732;2024-02-21T03:59:42;10.93;;;6.37;;
15669;SDS011;18524;45.190;5.732;2024-02-21T04:04:32;8.53;;;6.33;;
15669;SDS011;18524;45.190;5.732;2024-02-21T04:09:22;10.67;;;6.40;;
15669;SDS011;18524;45.190;5.732;2024-02-21T04:14:13;11.70;;;6.73;;
15669;SDS011;18524;45.190;5.732;2024-02-21T04:19:03;9.53;;;6.60;;
15669;SDS011;18524;45.190;5.732;2024-02-21T04:23:53;8.77;;;6.03;;
15669;SDS011;18524;45.190;5.732;2024-02-21T04:28:47;9.10;;;6.37;;
15669;SDS011;18524;45.190;5.732;2024-02-21T04:33:37;9.17;;;5.97;;
15669;SDS011;18524;45.190;5.732;2024-02-21T04:38:28;9.63;;;6.40;;
15669;SDS011;18524;45.190;5.732;2024-02-21T04:43:18;7.70;;;6.30;;
15669;SDS011;18524;45.190;5.732;2024-02-21T04:48:08;8.20;;;5.77;;
15669;SDS011;18524;45.190;5.732;2024-02-21T04:52:59;8.43;;;6.87;;
15669;SDS011;18524;45.190;5.732;2024-02-21T04:57:49;8.63;;;6.50;;
15669;SDS011;18524;45.190;5.732;2024-02-21T05:02:39;10.23;;;6.93;;
15669;SDS011;18524;45.190;5.732;2024-02-21T05:07:30;8.70;;;7.13;;
15669;SDS011;18524;45.190;5.732;2024-02-21T05:12:20;9.57;;;7.30;;
15669;SDS011;18524;45.190;5.732;2024-02-21T05:17:11;10.57;;;7.03;;
15669;SDS011;18524;45.190;5.732;2024-02-21T05:22:01;10.17;;;7.50;;
15669;SDS011;18524;45.190;5.732;2024-02-21T05:26:51;9.37;;;7.03;;
15669;SDS011;18524;45.190;5.732;2024-02-21T05:36:41;8.63;;;6.67;;
15669;SDS011;18524;45.190;5.732;2024-02-21T05:41:31;8.27;;;6.77;;
15669;SDS011;18524;45.190;5.732;2024-02-21T05:46:22;8.93;;;6.60;;
15669;SDS011;18524;45.190;5.732;2024-02-21T05:51:12;8.17;;;6.60;;
15669;SDS011;18524;45.190;5.732;2024-02-21T05:56:02;9.37;;;6.67;;
15669;SDS011;18524;45.190;5.732;2024-02-21T06:00:54;8.67;;;6.20;;
15669;SDS011;18524;45.190;5.732;2024-02-21T06:05:45;8.60;;;5.73;;
15669;SDS011;18524;45.190;5.732;2024-02-21T06:10:35;9.50;;;6.80;;
15669;SDS011;18524;45.190;5.732;2024-02-21T06:15:25;9.27;;;6.83;;
15669;SDS011;18524;45.190;5.732;2024-02-21T06:20:16;9.17;;;7.47;;
15669;SDS011;18524;45.190;5.732;2024-02-21T06:25:06;8.87;;;6.87;;
15669;SDS011;18524;45.190;5.732;2024-02-21T06:29:57;10.97;;;7.13;;
15669;SDS011;18524;45.190;5.732;2024-02-21T06:34:47;8.03;;;6.57;;
15669;SDS011;18524;45.190;5.732;2024-02-21T06:39:38;8.63;;;6.47;;
15669;SDS011;18524;45.190;5.732;2024-02-21T06:44:30;8.93;;;6.50;;
15669;SDS011;18524;45.190;5.732;2024-02-21T06:49:22;10.47;;;6.73;;
15669;SDS011;18524;45.190;5.732;2024-02-21T06:54:12;9.27;;;6.33;;
15669;SDS011;18524;45.190;5.732;2024-02-21T06:59:03;7.43;;;6.20;;
15669;SDS011;18524;45.190;5.732;2024-02-21T07:03:53;9.23;;;6.43;;
15669;SDS011;18524;45.190;5.732;2024-02-21T07:08:44;11.23;;;7.90;;
15669;SDS011;18524;45.190;5.732;2024-02-21T07:13:34;13.03;;;7.27;;
15669;SDS011;18524;45.190;5.732;2024-02-21T07:18:25;10.17;;;7.63;;
15669;SDS011;18524;45.190;5.732;2024-02-21T07:23:15;10.20;;;8.13;;
15669;SDS011;18524;45.190;5.732;2024-02-21T07:28:05;10.10;;;7.40;;
15669;SDS011;18524;45.190;5.732;2024-02-21T07:32:56;12.93;;;8.97;;
15669;SDS011;18524;45.190;5.732;2024-02-21T07:37:47;10.40;;;7.73;;
15669;SDS011;18524;45.190;5.732;2024-02-21T07:42:37;10.30;;;7.43;;
15669;SDS011;18524;45.190;5.732;2024-02-21T07:47:28;14.23;;;8.80;;
15669;SDS011;18524;45.190;5.732;2024-02-21T07:52:18;10.97;;;7.60;;
15669;SDS011;18524;45.190;5.732;2024-02-21T07:57:08;16.03;;;8.73;;
15669;SDS011;18524;45.190;5.732;2024-02-21T08:01:59;10.33;;;7.13;;
15669;SDS011;18524;45.190;5.732;2024-02-21T08:06:53;14.17;;;9.20;;
15669;SDS011;18524;45.190;5.732;2024-02-21T08:11:44;12.77;;;8.47;;
15669;SDS011;18524;45.190;5.732;2024-02-21T08:16:34;12.80;;;6.60;;
15669;SDS011;18524;45.190;5.732;2024-02-21T08:21:24;14.13;;;8.57;;
15669;SDS011;18524;45.190;5.732;2024-02-21T08:26:15;16.27;;;7.73;;
15669;SDS011;18524;45.190;5.732;2024-02-21T08:31:05;9.33;;;5.90;;
15669;SDS011;18524;45.190;5.732;2024-02-21T08:35:55;13.10;;;6.37;;
15669;SDS011;18524;45.190;5.732;2024-02-21T08:40:46;10.57;;;6.23;;
15669;SDS011;18524;45.190;5.732;2024-02-21T08:45:37;8.80;;;5.57;;
15669;SDS011;18524;45.190;5.732;2024-02-21T08:50:27;11.07;;;6.63;;
15669;SDS011;18524;45.190;5.732;2024-02-21T08:55:17;9.50;;;7.40;;
15669;SDS011;18524;45.190;5.732;2024-02-21T09:00:08;7.27;;;6.00;;
15669;SDS011;18524;45.190;5.732;2024-02-21T09:05:03;12.37;;;8.27;;
15669;SDS011;18524;45.190;5.732;2024-02-21T09:09:55;8.70;;;6.93;;
15669;SDS011;18524;45.190;5.732;2024-02-21T09:14:45;9.20;;;6.53;;
15669;SDS011;18524;45.190;5.732;2024-02-21T09:19:39;7.40;;;6.20;;
15669;SDS011;18524;45.190;5.732;2024-02-21T09:24:29;8.47;;;6.00;;
15669;SDS011;18524;45.190;5.732;2024-02-21T09:29:19;8.67;;;5.40;;
15669;SDS011;18524;45.190;5.732;2024-02-21T09:34:10;6.77;;;5.30;;
15669;SDS011;18524;45.190;5.732;2024-02-21T09:39:01;7.27;;;5.03;;
15669;SDS011;18524;45.190;5.732;2024-02-21T09:43:51;5.90;;;4.67;;
15669;SDS011;18524;45.190;5.732;2024-02-21T09:53:39;5.40;;;4.43;;
15669;SDS011;18524;45.190;5.732;2024-02-21T09:58:32;5.40;;;4.00;;
15669;SDS011;18524;45.190;5.732;2024-02-21T10:03:23;5.00;;;3.77;;
15669;SDS011;18524;45.190;5.732;2024-02-21T10:08:14;4.93;;;3.80;;
15669;SDS011;18524;45.190;5.732;2024-02-21T10:13:05;7.00;;;4.33;;
15669;SDS011;18524;45.190;5.732;2024-02-21T10:17:59;7.63;;;4.50;;
15669;SDS011;18524;45.190;5.732;2024-02-21T10:23:00;7.63;;;4.43;;
15669;SDS011;18524;45.190;5.732;2024-02-21T10:28:01;5.67;;;4.43;;
15669;SDS011;18524;45.190;5.732;2024-02-21T10:32:53;5.73;;;4.87;;
15669;SDS011;18524;45.190;5.732;2024-02-21T10:37:44;6.47;;;5.50;;
15669;SDS011;18524;45.190;5.732;2024-02-21T10:42:35;5.53;;;5.00;;
15669;SDS011;18524;45.190;5.732;2024-02-21T10:47:27;8.60;;;4.90;;
15669;SDS011;18524;45.190;5.732;2024-02-21T10:57:24;7.60;;;4.50;;
15669;SDS011;18524;45.190;5.732;2024-02-21T11:02:17;5.67;;;4.47;;
15669;SDS011;18524;45.190;5.732;2024-02-21T11:07:08;6.57;;;4.70;;
15669;SDS011;18524;45.190;5.732;2024-02-21T11:12:01;8.80;;;4.50;;
15669;SDS011;18524;45.190;5.732;2024-02-21T11:16:53;6.87;;;4.57;;
15669;SDS011;18524;45.190;5.732;2024-02-21T11:21:46;5.80;;;3.90;;
15669;SDS011;18524;45.190;5.732;2024-02-21T11:26:39;5.07;;;3.50;;
15669;SDS011;18524;45.190;5.732;2024-02-21T11:31:41;4.60;;;3.43;;
15669;SDS011;18524;45.190;5.732;2024-02-21T11:36:35;6.23;;;3.40;;
15669;SDS011;18524;45.190;5.732;2024-02-21T11:41:35;4.80;;;3.50;;
15669;SDS011;18524;45.190;5.732;2024-02-21T11:46:26;4.73;;;3.30;;
15669;SDS011;18524;45.190;5.732;2024-02-21T11:51:26;7.63;;;3.47;;
15669;SDS011;18524;45.190;5.732;2024-02-21T11:56:16;3.93;;;3.20;;
15669;SDS011;18524;45.190;5.732;2024-02-21T12:01:07;4.40;;;3.23;;
15669;SDS011;18524;45.190;5.732;2024-02-21T12:05:57;7.03;;;4.27;;
15669;SDS011;18524;45.190;5.732;2024-02-21T12:10:48;5.43;;;3.70;;
15669;SDS011;18524;45.190;5.732;2024-02-21T12:15:41;5.87;;;4.30;;
15669;SDS011;18524;45.190;5.732;2024-02-21T12:20:31;5.03;;;4.27;;
15669;SDS011;18524;45.190;5.732;2024-02-21T12:25:26;5.23;;;3.87;;
15669;SDS011;18524;45.190;5.732;2024-02-21T12:30:17;5.03;;;4.20;;
15669;SDS011;18524;45.190;5.732;2024-02-21T12:35:09;4.03;;;3.63;;
15669;SDS011;18524;45.190;5.732;2024-02-21T12:39:59;6.73;;;4.23;;
15669;SDS011;18524;45.190;5.732;2024-02-21T12:44:50;5.63;;;3.37;;
15669;SDS011;18524;45.190;5.732;2024-02-21T12:49:40;5.40;;;3.80;;
15669;SDS011;18524;45.190;5.732;2024-02-21T12:54:31;4.93;;;3.67;;
15669;SDS011;18524;45.190;5.732;2024-02-21T12:59:21;5.90;;;3.47;;
15669;SDS011;18524;45.190;5.732;2024-02-21T13:04:12;6.03;;;3.17;;
15669;SDS011;18524;45.190;5.732;2024-02-21T13:09:02;5.37;;;3.20;;
15669;SDS011;18524;45.190;5.732;2024-02-21T13:13:57;3.57;;;3.07;;
15669;SDS011;18524;45.190;5.732;2024-02-21T13:18:47;4.70;;;3.13;;
15669;SDS011;18524;45.190;5.732;2024-02-21T13:23:38;5.20;;;3.63;;
15669;SDS011;18524;45.190;5.732;2024-02-21T13:28:29;6.83;;;4.43;;
15669;SDS011;18524;45.190;5.732;2024-02-21T13:33:20;6.60;;;4.13;;
15669;SDS011;18524;45.190;5.732;2024-02-21T13:38:10;5.57;;;5.00;;
15669;SDS011;18524;45.190;5.732;2024-02-21T13:43:01;10.37;;;6.97;;
15669;SDS011;18524;45.190;5.732;2024-02-21T13:47:52;5.63;;;3.70;;
15669;SDS011;18524;45.190;5.732;2024-02-21T13:52:42;4.40;;;3.63;;
15669;SDS011;18524;45.190;5.732;2024-02-21T13:57:33;6.40;;;3.60;;
15669;SDS011;18524;45.190;5.732;2024-02-21T14:02:23;4.37;;;2.83;;
15669;SDS011;18524;45.190;5.732;2024-02-21T14:07:13;7.10;;;4.03;;
15669;SDS011;18524;45.190;5.732;2024-02-21T14:12:04;11.53;;;4.17;;
15669;SDS011;18524;45.190;5.732;2024-02-21T14:16:57;7.53;;;3.67;;
15669;SDS011;18524;45.190;5.732;2024-02-21T14:21:48;5.90;;;3.50;;
15669;SDS011;18524;45.190;5.732;2024-02-21T14:26:38;9.43;;;3.83;;
15669;SDS011;18524;45.190;5.732;2024-02-21T14:31:31;5.03;;;3.27;;
15669;SDS011;18524;45.190;5.732;2024-02-21T14:36:22;4.90;;;3.40;;
15669;SDS011;18524;45.190;5.732;2024-02-21T14:41:13;4.30;;;3.30;;
15669;SDS011;18524;45.190;5.732;2024-02-21T14:46:04;5.17;;;2.97;;
15669;SDS011;18524;45.190;5.732;2024-02-21T14:50:55;4.13;;;3.03;;
15669;SDS011;18524;45.190;5.732;2024-02-21T14:55:46;6.27;;;2.93;;
15669;SDS011;18524;45.190;5.732;2024-02-21T15:00:36;4.73;;;3.10;;
15669;SDS011;18524;45.190;5.732;2024-02-21T15:05:26;6.00;;;3.10;;
15669;SDS011;18524;45.190;5.732;2024-02-21T15:10:18;4.57;;;3.37;;
15669;SDS011;18524;45.190;5.732;2024-02-21T15:15:08;4.57;;;2.90;;
15669;SDS011;18524;45.190;5.732;2024-02-21T15:19:59;3.80;;;2.83;;
15669;SDS011;18524;45.190;5.732;2024-02-21T15:24:51;3.23;;;2.93;;
15669;SDS011;18524;45.190;5.732;2024-02-21T15:29:42;4.87;;;3.13;;
15669;SDS011;18524;45.190;5.732;2024-02-21T15:34:33;4.97;;;3.00;;
15669;SDS011;18524;45.190;5.732;2024-02-21T15:39:23;3.60;;;2.87;;
15669;SDS011;18524;45.190;5.732;2024-02-21T15:44:16;5.83;;;3.00;;
15669;SDS011;18524;45.190;5.732;2024-02-21T15:49:07;5.73;;;3.10;;
15669;SDS011;18524;45.190;5.732;2024-02-21T15:53:58;4.60;;;3.10;;
15669;SDS011;18524;45.190;5.732;2024-02-21T15:58:48;6.33;;;2.87;;
15669;SDS011;18524;45.190;5.732;2024-02-21T16:03:39;4.13;;;2.60;;
15669;SDS011;18524;45.190;5.732;2024-02-21T16:08:30;5.53;;;2.97;;
15669;SDS011;18524;45.190;5.732;2024-02-21T16:13:20;3.33;;;2.70;;
15669;SDS011;18524;45.190;5.732;2024-02-21T16:18:11;4.63;;;2.67;;
15669;SDS011;18524;45.190;5.732;2024-02-21T16:23:01;4.17;;;2.73;;
15669;SDS011;18524;45.190;5.732;2024-02-21T16:27:53;5.73;;;3.33;;
15669;SDS011;18524;45.190;5.732;2024-02-21T16:32:43;5.30;;;3.43;;
15669;SDS011;18524;45.190;5.732;2024-02-21T16:37:33;12.10;;;3.10;;
15669;SDS011;18524;45.190;5.732;2024-02-21T16:42:24;4.23;;;2.90;;
15669;SDS011;18524;45.190;5.732;2024-02-21T16:47:14;6.43;;;2.70;;
15669;SDS011;18524;45.190;5.732;2024-02-21T16:52:05;4.80;;;2.50;;
15669;SDS011;18524;45.190;5.732;2024-02-21T16:56:55;8.13;;;2.97;;
15669;SDS011;18524;45.190;5.732;2024-02-21T17:01:46;4.80;;;3.33;;
15669;SDS011;18524;45.190;5.732;2024-02-21T17:06:38;6.87;;;3.63;;
15669;SDS011;18524;45.190;5.732;2024-02-21T17:11:29;3.57;;;3.07;;
15669;SDS011;18524;45.190;5.732;2024-02-21T17:16:19;5.27;;;2.90;;
15669;SDS011;18524;45.190;5.732;2024-02-21T17:21:10;5.00;;;3.33;;
15669;SDS011;18524;45.190;5.732;2024-02-21T17:26:00;3.17;;;2.80;;
15669;SDS011;18524;45.190;5.732;2024-02-21T17:30:50;6.87;;;2.97;;
15669;SDS011;18524;45.190;5.732;2024-02-21T17:35:41;4.53;;;3.07;;
15669;SDS011;18524;45.190;5.732;2024-02-21T17:40:33;6.10;;;4.73;;
15669;SDS011;18524;45.190;5.732;2024-02-21T17:45:24;5.63;;;4.67;;
15669;SDS011;18524;45.190;5.732;2024-02-21T17:50:14;8.00;;;5.10;;
15669;SDS011;18524;45.190;5.732;2024-02-21T17:55:05;6.70;;;4.43;;
15669;SDS011;18524;45.190;5.732;2024-02-21T17:59:56;9.97;;;5.53;;
15669;SDS011;18524;45.190;5.732;2024-02-21T18:04:46;8.70;;;5.20;;
15669;SDS011;18524;45.190;5.732;2024-02-21T18:09:37;7.67;;;5.83;;
15669;SDS011;18524;45.190;5.732;2024-02-21T18:14:28;7.57;;;5.93;;
15669;SDS011;18524;45.190;5.732;2024-02-21T18:19:18;10.30;;;6.67;;
15669;SDS011;18524;45.190;5.732;2024-02-21T18:24:09;9.27;;;6.37;;
15669;SDS011;18524;45.190;5.732;2024-02-21T18:29:00;8.13;;;5.97;;
15669;SDS011;18524;45.190;5.732;2024-02-21T18:33:50;9.77;;;7.30;;
15669;SDS011;18524;45.190;5.732;2024-02-21T18:38:41;10.10;;;6.43;;
15669;SDS011;18524;45.190;5.732;2024-02-21T18:43:32;9.60;;;7.07;;
15669;SDS011;18524;45.190;5.732;2024-02-21T18:48:22;13.90;;;7.90;;
15669;SDS011;18524;45.190;5.732;2024-02-21T18:53:12;12.73;;;9.40;;
15669;SDS011;18524;45.190;5.732;2024-02-21T18:58:03;14.00;;;9.67;;
15669;SDS011;18524;45.190;5.732;2024-02-21T19:02:54;12.27;;;9.00;;
15669;SDS011;18524;45.190;5.732;2024-02-21T19:07:44;15.17;;;8.93;;
15669;SDS011;18524;45.190;5.732;2024-02-21T19:12:35;12.53;;;8.40;;
15669;SDS011;18524;45.190;5.732;2024-02-21T19:17:26;14.27;;;10.37;;
15669;SDS011;18524;45.190;5.732;2024-02-21T19:22:18;13.83;;;8.50;;
15669;SDS011;18524;45.190;5.732;2024-02-21T19:27:11;11.67;;;8.13;;
15669;SDS011;18524;45.190;5.732;2024-02-21T19:32:01;10.17;;;7.80;;
15669;SDS011;18524;45.190;5.732;2024-02-21T19:36:52;10.57;;;7.73;;
15669;SDS011;18524;45.190;5.732;2024-02-21T19:41:42;11.60;;;8.63;;
15669;SDS011;18524;45.190;5.732;2024-02-21T19:46:32;13.43;;;9.20;;
15669;SDS011;18524;45.190;5.732;2024-02-21T19:51:25;13.57;;;10.17;;
15669;SDS011;18524;45.190;5.732;2024-02-21T19:56:16;12.93;;;10.33;;
15669;SDS011;18524;45.190;5.732;2024-02-21T20:01:06;12.20;;;8.37;;
15669;SDS011;18524;45.190;5.732;2024-02-21T20:05:57;13.60;;;9.07;;
15669;SDS011;18524;45.190;5.732;2024-02-21T20:10:47;13.17;;;9.60;;
15669;SDS011;18524;45.190;5.732;2024-02-21T20:15:38;13.00;;;9.47;;
15669;SDS011;18524;45.190;5.732;2024-02-21T20:20:29;11.47;;;9.23;;
15669;SDS011;18524;45.190;5.732;2024-02-21T20:25:21;13.40;;;9.93;;
15669;SDS011;18524;45.190;5.732;2024-02-21T20:30:11;12.60;;;9.80;;
15669;SDS011;18524;45.190;5.732;2024-02-21T20:35:03;17.83;;;12.37;;
15669;SDS011;18524;45.190;5.732;2024-02-21T20:39:56;14.73;;;10.33;;
15669;SDS011;18524;45.190;5.732;2024-02-21T20:44:46;16.53;;;10.37;;
15669;SDS011;18524;45.190;5.732;2024-02-21T20:49:36;14.73;;;10.37;;
15669;SDS011;18524;45.190;5.732;2024-02-21T20:54:27;11.77;;;8.30;;
15669;SDS011;18524;45.190;5.732;2024-02-21T20:59:17;11.47;;;8.73;;
15669;SDS011;18524;45.190;5.732;2024-02-21T21:04:13;12.50;;;8.23;;
15669;SDS011;18524;45.190;5.732;2024-02-21T21:09:03;12.33;;;7.97;;
15669;SDS011;18524;45.190;5.732;2024-02-21T21:13:54;10.87;;;8.67;;
15669;SDS011;18524;45.190;5.732;2024-02-21T21:18:44;11.13;;;8.90;;
15669;SDS011;18524;45.190;5.732;2024-02-21T21:23:34;11.40;;;8.50;;
15669;SDS011;18524;45.190;5.732;2024-02-21T21:28:25;12.23;;;9.53;;
15669;SDS011;18524;45.190;5.732;2024-02-21T21:33:16;11.10;;;8.60;;
15669;SDS011;18524;45.190;5.732;2024-02-21T21:38:10;12.03;;;9.00;;
15669;SDS011;18524;45.190;5.732;2024-02-21T21:43:03;9.37;;;7.93;;
15669;SDS011;18524;45.190;5.732;2024-02-21T21:47:53;10.77;;;7.87;;
15669;SDS011;18524;45.190;5.732;2024-02-21T21:52:43;10.33;;;7.57;;
15669;SDS011;18524;45.190;5.732;2024-02-21T21:57:34;9.43;;;7.87;;
15669;SDS011;18524;45.190;5.732;2024-02-21T22:02:25;9.47;;;7.20;;
15669;SDS011;18524;45.190;5.732;2024-02-21T22:07:17;11.37;;;8.20;;
15669;SDS011;18524;45.190;5.732;2024-02-21T22:12:07;11.40;;;8.30;;
15669;SDS011;18524;45.190;5.732;2024-02-21T22:16:58;9.17;;;7.20;;
15669;SDS011;18524;45.190;5.732;2024-02-21T22:21:48;7.83;;;6.27;;
15669;SDS011;18524;45.190;5.732;2024-02-21T22:26:39;9.93;;;6.77;;
15669;SDS011;18524;45.190;5.732;2024-02-21T22:31:29;8.17;;;5.77;;
15669;SDS011;18524;45.190;5.732;2024-02-21T22:36:19;7.03;;;5.83;;
15669;SDS011;18524;45.190;5.732;2024-02-21T22:41:10;9.97;;;6.30;;
15669;SDS011;18524;45.190;5.732;2024-02-21T22:46:00;8.40;;;5.73;;
15669;SDS011;18524;45.190;5.732;2024-02-21T22:50:50;8.77;;;6.53;;
15669;SDS011;18524;45.190;5.732;2024-02-21T22:55:41;9.83;;;5.70;;
15669;SDS011;18524;45.190;5.732;2024-02-21T23:00:31;8.03;;;6.43;;
15669;SDS011;18524;45.190;5.732;2024-02-21T23:05:21;7.40;;;6.40;;
15669;SDS011;18524;45.190;5.732;2024-02-21T23:10:13;7.63;;;6.50;;
15669;SDS011;18524;45.190;5.732;2024-02-21T23:15:04;8.37;;;6.70;;
15669;SDS011;18524;45.190;5.732;2024-02-21T23:19:56;9.60;;;7.33;;
15669;SDS011;18524;45.190;5.732;2024-02-21T23:24:46;8.47;;;6.50;;
15669;SDS011;18524;45.190;5.732;2024-02-21T23:29:36;7.90;;;6.43;;
15669;SDS011;18524;45.190;5.732;2024-02-21T23:34:27;8.17;;;6.43;;
15669;SDS011;18524;45.190;5.732;2024-02-21T23:39:17;8.40;;;6.60;;
15669;SDS011;18524;45.190;5.732;2024-02-21T23:44:08;8.83;;;6.47;;
15669;SDS011;18524;45.190;5.732;2024-02-21T23:48:59;8.60;;;6.40;;
15669;SDS011;18524;45.190;5.732;2024-02-21T23:53:52;8.07;;;5.87;;
15669;SDS011;18524;45.190;5.732;2024-02-21T23:58:43;8.30;;;4.80;;
